createdAt,value
2019-05-16T00:00:35.834Z,1.40
2019-05-16T00:02:59.332Z,1.60
2019-05-16T00:05:23.014Z,1.50
2019-05-16T00:07:48.996Z,1.60
2019-05-16T00:10:11.940Z,1.80
2019-05-16T00:12:35.541Z,1.75
2019-05-16T00:14:59.138Z,1.77
2019-05-16T00:17:22.671Z,1.72
2019-05-16T00:19:48.273Z,1.60
2019-05-16T00:22:11.436Z,1.40
2019-05-16T00:24:35.002Z,1.50
2019-05-16T00:26:58.537Z,1.57
2019-05-16T00:29:22.052Z,1.40
2019-05-16T00:31:45.605Z,1.47
2019-05-16T00:34:09.609Z,1.37
2019-05-16T00:36:33.341Z,1.40
2019-05-16T00:38:57.830Z,1.50
2019-05-16T00:41:21.566Z,1.72
2019-05-16T00:43:45.090Z,1.32
2019-05-16T00:46:08.698Z,1.47
2019-05-16T00:48:32.195Z,1.45
2019-05-16T00:50:55.741Z,1.20
2019-05-16T00:53:19.343Z,1.80
2019-05-16T00:55:43.909Z,1.22
2019-05-16T00:58:08.842Z,1.50
2019-05-16T01:00:41.237Z,1.32
2019-05-16T01:03:04.776Z,1.12
2019-05-16T01:05:28.485Z,1.30
2019-05-16T01:07:51.965Z,1.30
2019-05-16T01:10:15.537Z,1.30
2019-05-16T01:12:39.321Z,1.20
2019-05-16T01:15:02.959Z,1.60
2019-05-16T01:17:28.330Z,2.05
2019-05-16T01:19:51.789Z,1.70
2019-05-16T01:22:15.320Z,1.52
2019-05-16T01:24:41.496Z,1.35
2019-05-16T01:27:04.157Z,1.10
2019-05-16T01:29:28.227Z,1.22
2019-05-16T01:31:51.881Z,1.10
2019-05-16T01:34:15.391Z,1.30
2019-05-16T01:36:40.845Z,1.20
2019-05-16T01:39:05.105Z,1.37
2019-05-16T01:41:28.624Z,1.37
2019-05-16T01:43:52.133Z,1.30
2019-05-16T01:46:17.853Z,1.30
2019-05-16T01:48:40.933Z,1.52
2019-05-16T01:51:04.458Z,1.22
2019-05-16T01:53:28.055Z,1.50
2019-05-16T01:55:51.562Z,1.32
2019-05-16T01:58:15.097Z,1.40
2019-05-16T02:00:49.676Z,1.55
2019-05-16T02:03:05.024Z,1.42
2019-05-16T02:05:28.528Z,1.50
2019-05-16T02:07:52.071Z,6.10
2019-05-16T02:10:18.172Z,3.00
2019-05-16T02:12:41.465Z,1.90
2019-05-16T02:15:07.807Z,1.60
2019-05-16T02:17:31.056Z,1.60
2019-05-16T02:19:54.641Z,1.30
2019-05-16T02:22:18.187Z,1.37
2019-05-16T02:24:41.687Z,1.37
2019-05-16T02:27:05.264Z,1.20
2019-05-16T02:29:29.863Z,1.30
2019-05-16T02:31:53.525Z,1.40
2019-05-16T02:34:17.036Z,1.42
2019-05-16T02:36:40.695Z,1.57
2019-05-16T02:39:05.926Z,1.35
2019-05-16T02:41:31.166Z,1.30
2019-05-16T02:43:54.781Z,1.57
2019-05-16T02:46:21.565Z,1.55
2019-05-16T02:48:43.930Z,1.92
2019-05-16T02:51:10.834Z,1.80
2019-05-16T02:53:32.706Z,1.27
2019-05-16T02:55:56.197Z,1.72
2019-05-16T02:58:23.455Z,1.50
2019-05-16T03:00:45.110Z,2.10
2019-05-16T03:03:12.126Z,1.80
2019-05-16T03:05:34.956Z,1.60
2019-05-16T03:08:01.261Z,1.70
2019-05-16T03:10:24.158Z,3.00
2019-05-16T03:12:51.329Z,2.45
2019-05-16T03:15:15.082Z,1.52
2019-05-16T03:17:41.675Z,1.65
2019-05-16T03:20:06.009Z,1.50
2019-05-16T03:22:31.524Z,2.35
2019-05-16T03:24:54.927Z,2.67
2019-05-16T03:27:21.380Z,3.70
2019-05-16T03:29:43.705Z,8.48
2019-05-16T03:32:07.216Z,9.95
2019-05-16T03:34:34.313Z,4.78
2019-05-16T03:36:55.980Z,5.40
2019-05-16T03:39:21.245Z,1.75
2019-05-16T03:41:44.970Z,1.90
2019-05-16T03:44:11.299Z,1.62
2019-05-16T03:46:33.788Z,2.20
2019-05-16T03:48:57.313Z,3.60
2019-05-16T03:51:21.495Z,1.70
2019-05-16T03:53:45.535Z,2.80
2019-05-16T03:56:11.163Z,2.55
2019-05-16T03:58:34.367Z,3.27
2019-05-16T04:01:01.834Z,2.72
2019-05-16T04:03:23.278Z,1.80
2019-05-16T04:05:46.942Z,1.57
2019-05-16T04:08:18.979Z,2.15
2019-05-16T04:10:35.696Z,2.30
2019-05-16T04:13:01.109Z,1.98
2019-05-16T04:15:24.461Z,2.20
2019-05-16T04:17:51.056Z,2.10
2019-05-16T04:20:14.310Z,2.00
2019-05-16T04:22:40.657Z,2.30
2019-05-16T04:25:03.480Z,2.55
2019-05-16T04:27:26.995Z,3.02
2019-05-16T04:29:51.373Z,2.42
2019-05-16T04:32:20.847Z,2.58
2019-05-16T04:34:43.393Z,2.17
2019-05-16T04:37:06.891Z,2.30
2019-05-16T04:39:31.809Z,2.90
2019-05-16T04:41:55.774Z,2.80
2019-05-16T04:44:21.288Z,2.72
2019-05-16T04:46:44.534Z,3.30
2019-05-16T04:49:11.255Z,5.10
2019-05-16T04:51:33.321Z,2.67
2019-05-16T04:53:56.854Z,2.87
2019-05-16T04:56:21.659Z,4.35
2019-05-16T04:58:46.714Z,2.72
2019-05-16T05:01:11.223Z,2.58
2019-05-16T05:03:35.072Z,2.20
2019-05-16T05:06:01.251Z,1.70
2019-05-16T05:08:23.824Z,2.62
2019-05-16T05:10:47.353Z,3.72
2019-05-16T05:13:11.144Z,3.72
2019-05-16T05:15:34.765Z,3.25
2019-05-16T05:18:00.615Z,2.83
2019-05-16T05:20:24.376Z,3.47
2019-05-16T05:22:49.833Z,2.47
2019-05-16T05:25:13.461Z,2.20
2019-05-16T05:27:36.974Z,2.65
2019-05-16T05:30:01.587Z,2.27
2019-05-16T05:32:25.094Z,2.30
2019-05-16T05:34:50.374Z,2.02
2019-05-16T05:37:13.948Z,2.10
2019-05-16T05:39:39.583Z,2.17
2019-05-16T05:42:02.747Z,2.20
2019-05-16T05:44:26.289Z,2.65
2019-05-16T05:46:51.170Z,2.22
2019-05-16T05:49:15.978Z,2.25
2019-05-16T05:51:40.615Z,2.45
2019-05-16T05:54:04.434Z,2.02
2019-05-16T05:56:30.318Z,2.00
2019-05-16T05:58:53.205Z,2.10
2019-05-16T06:01:16.714Z,2.22
2019-05-16T06:03:40.256Z,2.47
2019-05-16T06:06:03.777Z,2.42
2019-05-16T06:08:27.273Z,2.33
2019-05-16T06:10:50.850Z,1.95
2019-05-16T06:13:14.401Z,2.20
2019-05-16T06:15:39.934Z,2.42
2019-05-16T06:18:03.293Z,2.20
2019-05-16T06:20:26.816Z,3.08
2019-05-16T06:22:50.914Z,2.55
2019-05-16T06:25:14.655Z,2.40
2019-05-16T06:27:40.426Z,2.65
2019-05-16T06:30:03.505Z,2.70
2019-05-16T06:32:27.020Z,2.30
2019-05-16T06:34:50.887Z,2.52
2019-05-16T06:37:14.583Z,2.60
2019-05-16T06:39:44.573Z,2.45
2019-05-16T06:42:03.358Z,2.50
2019-05-16T06:44:26.904Z,2.58
2019-05-16T06:47:08.830Z,2.45
2019-05-16T06:49:15.724Z,2.87
2019-05-16T06:51:39.820Z,2.70
2019-05-16T06:54:03.771Z,2.52
2019-05-16T06:56:27.466Z,2.58
2019-05-16T06:58:52.054Z,2.70
2019-05-16T07:01:15.825Z,2.67
2019-05-16T07:03:40.097Z,2.52
2019-05-16T07:06:03.907Z,2.33
2019-05-16T07:08:27.407Z,2.50
2019-05-16T07:10:51.227Z,3.35
2019-05-16T07:13:14.879Z,3.15
2019-05-16T07:15:40.221Z,3.00
2019-05-16T07:18:03.878Z,3.00
2019-05-16T07:20:30.045Z,2.85
2019-05-16T07:22:52.655Z,2.50
2019-05-16T07:25:16.339Z,2.70
2019-05-16T07:27:40.284Z,2.80
2019-05-16T07:30:06.624Z,2.80
2019-05-16T07:32:30.358Z,8.10
2019-05-16T07:34:53.844Z,3.27
2019-05-16T07:37:19.895Z,2.65
2019-05-16T07:39:42.762Z,2.90
2019-05-16T07:42:06.372Z,2.70
2019-05-16T07:44:30.927Z,3.10
2019-05-16T07:46:54.739Z,2.80
2019-05-16T07:49:19.767Z,2.92
2019-05-16T07:51:43.359Z,5.75
2019-05-16T07:54:06.888Z,2.45
2019-05-16T07:56:31.181Z,3.27
2019-05-16T07:58:54.824Z,2.70
2019-05-16T08:01:20.043Z,3.55
2019-05-16T08:03:44.317Z,7.17
2019-05-16T08:06:10.707Z,2.83
2019-05-16T08:08:33.272Z,4.17
2019-05-16T08:10:56.821Z,4.10
2019-05-16T08:13:21.221Z,3.80
2019-05-16T08:15:45.029Z,3.47
2019-05-16T08:18:11.103Z,3.17
2019-05-16T08:20:34.719Z,3.22
2019-05-16T08:23:00.654Z,2.80
2019-05-16T08:25:23.565Z,3.12
2019-05-16T08:27:47.089Z,2.72
2019-05-16T08:30:11.335Z,5.03
2019-05-16T08:32:34.908Z,3.37
2019-05-16T08:35:01.167Z,4.08
2019-05-16T08:37:36.777Z,6.25
2019-05-16T08:39:50.968Z,5.17
2019-05-16T08:42:14.315Z,4.62
2019-05-16T08:44:41.566Z,4.05
2019-05-16T08:47:06.308Z,3.40
2019-05-16T08:49:30.708Z,5.08
2019-05-16T08:51:54.436Z,3.60
2019-05-16T08:54:17.992Z,4.37
2019-05-16T08:56:44.134Z,3.77
2019-05-16T08:59:06.959Z,4.22
2019-05-16T09:01:35.015Z,3.50
2019-05-16T09:03:55.775Z,3.58
2019-05-16T09:06:22.826Z,4.42
2019-05-16T09:08:44.605Z,3.92
2019-05-16T09:11:26.961Z,3.80
2019-05-16T09:13:33.437Z,3.70
2019-05-16T09:15:57.221Z,2.98
2019-05-16T09:18:20.783Z,3.58
2019-05-16T09:20:44.291Z,3.22
2019-05-16T09:23:07.848Z,2.90
2019-05-16T09:25:31.351Z,2.95
2019-05-16T09:27:56.898Z,3.10
2019-05-16T09:30:20.693Z,3.40
2019-05-16T09:32:44.266Z,2.87
2019-05-16T09:35:09.436Z,3.98
2019-05-16T09:37:32.964Z,4.05
2019-05-16T09:39:57.227Z,4.45
2019-05-16T09:42:21.191Z,6.00
2019-05-16T09:44:47.363Z,2.90
2019-05-16T09:47:09.986Z,3.10
2019-05-16T09:49:33.574Z,3.00
2019-05-16T09:51:57.073Z,3.17
2019-05-16T09:54:20.608Z,4.17
2019-05-16T09:56:46.309Z,5.58
2019-05-16T09:59:09.453Z,2.83
2019-05-16T10:01:33.058Z,2.45
2019-05-16T10:03:56.708Z,3.27
2019-05-16T10:06:20.211Z,2.70
2019-05-16T10:08:43.849Z,2.95
2019-05-16T10:11:07.502Z,3.22
2019-05-16T10:13:31.141Z,3.60
2019-05-16T10:15:54.790Z,3.65
2019-05-16T10:18:18.422Z,3.40
2019-05-16T10:20:43.208Z,3.55
2019-05-16T10:23:14.391Z,2.52
2019-05-16T10:25:32.293Z,2.40
2019-05-16T10:27:55.815Z,2.50
2019-05-16T10:30:20.923Z,2.25
2019-05-16T10:32:44.450Z,2.12
2019-05-16T10:35:08.591Z,3.33
2019-05-16T10:37:32.091Z,3.92
2019-05-16T10:39:56.376Z,4.47
2019-05-16T10:42:28.790Z,7.67
2019-05-16T10:44:48.327Z,6.40
2019-05-16T10:47:11.377Z,5.37
2019-05-16T10:49:38.777Z,3.60
2019-05-16T10:52:00.257Z,2.75
2019-05-16T10:54:24.101Z,3.40
2019-05-16T10:56:47.822Z,4.05
2019-05-16T10:59:46.650Z,2.72
2019-05-16T11:01:36.815Z,1.90
2019-05-16T11:04:00.445Z,2.50
2019-05-16T11:06:28.218Z,2.98
2019-05-16T11:08:49.545Z,3.08
2019-05-16T11:11:13.239Z,3.33
2019-05-16T11:13:37.092Z,5.62
2019-05-16T11:16:00.595Z,2.92
2019-05-16T11:18:26.923Z,3.60
2019-05-16T11:20:49.699Z,3.47
2019-05-16T11:23:13.366Z,2.77
2019-05-16T11:25:36.929Z,3.10
2019-05-16T11:28:00.479Z,4.37
2019-05-16T11:30:24.185Z,3.83
2019-05-16T11:32:48.352Z,2.60
2019-05-16T11:35:11.970Z,1.87
2019-05-16T11:37:37.621Z,2.52
2019-05-16T11:40:00.741Z,3.05
2019-05-16T11:42:24.249Z,2.27
2019-05-16T11:44:48.038Z,2.70
2019-05-16T11:47:11.571Z,1.90
2019-05-16T11:49:36.904Z,1.80
2019-05-16T11:52:00.597Z,2.30
2019-05-16T11:54:26.440Z,2.65
2019-05-16T11:56:49.593Z,7.37
2019-05-16T11:59:13.193Z,3.60
2019-05-16T12:01:37.031Z,3.35
2019-05-16T12:04:00.706Z,2.83
2019-05-16T12:06:26.629Z,2.40
2019-05-16T12:08:49.507Z,2.67
2019-05-16T12:11:13.116Z,3.00
2019-05-16T12:13:37.076Z,2.37
2019-05-16T12:16:00.862Z,3.65
2019-05-16T12:18:26.404Z,2.22
2019-05-16T12:20:49.767Z,6.83
2019-05-16T12:23:13.355Z,4.37
2019-05-16T12:25:36.992Z,7.80
2019-05-16T12:28:00.502Z,5.72
2019-05-16T12:30:24.234Z,4.58
2019-05-16T12:32:47.748Z,3.40
2019-05-16T12:35:12.721Z,1.50
2019-05-16T12:37:37.283Z,1.52
2019-05-16T12:40:01.206Z,1.80
2019-05-16T12:42:26.987Z,1.37
2019-05-16T12:44:50.085Z,2.08
2019-05-16T12:47:13.588Z,2.17
2019-05-16T12:49:37.123Z,2.30
2019-05-16T12:52:00.706Z,6.87
2019-05-16T12:54:24.245Z,2.30
2019-05-16T12:56:48.375Z,1.92
2019-05-16T12:59:17.824Z,1.40
2019-05-16T13:01:38.492Z,1.82
2019-05-16T13:04:02.264Z,1.82
2019-05-16T13:06:27.746Z,3.52
2019-05-16T13:08:53.466Z,2.10
2019-05-16T13:11:17.734Z,1.75
2019-05-16T13:13:41.432Z,1.98
2019-05-16T13:16:07.511Z,7.40
2019-05-16T13:18:30.357Z,16.42
2019-05-16T13:20:53.948Z,2.60
2019-05-16T13:23:18.184Z,4.40
2019-05-16T13:25:42.035Z,2.02
2019-05-16T13:28:07.925Z,1.35
2019-05-16T13:30:31.026Z,1.27
2019-05-16T13:32:56.513Z,1.07
2019-05-16T13:35:20.159Z,3.33
2019-05-16T13:37:43.675Z,1.82
2019-05-16T13:40:09.059Z,1.42
2019-05-16T13:42:32.609Z,1.67
2019-05-16T13:44:57.753Z,3.17
2019-05-16T13:47:21.508Z,2.00
2019-05-16T13:49:45.070Z,1.25
2019-05-16T13:52:08.640Z,2.33
2019-05-16T13:54:32.174Z,1.82
2019-05-16T13:56:57.220Z,1.47
2019-05-16T13:59:21.034Z,1.42
2019-05-16T14:01:44.601Z,1.57
2019-05-16T14:04:09.775Z,2.55
2019-05-16T14:06:33.472Z,1.70
2019-05-16T14:08:57.000Z,1.50
2019-05-16T14:11:20.505Z,2.37
2019-05-16T14:13:44.010Z,2.20
2019-05-16T14:16:07.626Z,2.70
2019-05-16T14:18:31.117Z,3.20
2019-05-16T14:20:57.124Z,3.05
2019-05-16T14:23:19.898Z,2.52
2019-05-16T14:25:43.680Z,1.90
2019-05-16T14:28:07.795Z,1.17
2019-05-16T14:30:31.496Z,1.62
2019-05-16T14:33:00.336Z,1.82
2019-05-16T14:35:20.403Z,3.20
2019-05-16T14:37:43.881Z,4.35
2019-05-16T14:40:08.497Z,6.78
2019-05-16T14:42:32.136Z,5.00
2019-05-16T14:45:06.393Z,6.95
2019-05-16T14:47:20.895Z,5.58
2019-05-16T14:49:44.424Z,3.05
2019-05-16T14:52:07.953Z,4.28
2019-05-16T14:54:31.465Z,1.87
2019-05-16T14:57:00.248Z,6.83
2019-05-16T14:59:20.241Z,6.40
2019-05-16T15:01:47.268Z,7.85
2019-05-16T15:04:09.973Z,6.08
2019-05-16T15:06:33.504Z,9.60
2019-05-16T15:08:57.022Z,5.45
2019-05-16T15:11:20.553Z,3.72
2019-05-16T15:13:44.065Z,2.15
2019-05-16T15:16:07.879Z,4.30
2019-05-16T15:18:31.544Z,7.55
2019-05-16T15:20:57.523Z,5.95
2019-05-16T15:23:20.336Z,7.58
2019-05-16T15:25:43.851Z,4.97
2019-05-16T15:28:08.019Z,3.60
2019-05-16T15:30:31.529Z,4.83
2019-05-16T15:32:56.969Z,6.35
2019-05-16T15:35:22.101Z,6.00
2019-05-16T15:37:48.223Z,5.05
2019-05-16T15:40:11.402Z,4.53
2019-05-16T15:42:37.315Z,2.20
2019-05-16T15:45:00.199Z,5.65
2019-05-16T15:47:23.739Z,2.90
2019-05-16T15:49:47.846Z,5.30
2019-05-16T15:52:11.537Z,3.98
2019-05-16T15:54:37.596Z,2.42
2019-05-16T15:57:00.622Z,4.87
2019-05-16T15:59:27.015Z,3.27
2019-05-16T16:01:49.408Z,2.40
2019-05-16T16:04:13.282Z,3.80
2019-05-16T16:06:37.925Z,3.60
2019-05-16T16:09:01.600Z,2.90
2019-05-16T16:11:27.263Z,3.95
2019-05-16T16:13:50.948Z,6.55
2019-05-16T16:16:14.453Z,10.48
2019-05-16T16:18:38.077Z,7.47
2019-05-16T16:21:01.592Z,7.35
2019-05-16T16:23:27.284Z,7.62
2019-05-16T16:25:51.682Z,10.60
2019-05-16T16:28:17.776Z,7.53
2019-05-16T16:30:41.633Z,5.40
2019-05-16T16:33:19.053Z,19.98
2019-05-16T16:35:30.846Z,8.55
2019-05-16T16:37:54.599Z,9.63
2019-05-16T16:40:18.606Z,4.17
2019-05-16T16:42:42.291Z,3.50
2019-05-16T16:45:07.450Z,3.27
2019-05-16T16:47:31.232Z,2.90
2019-05-16T16:49:59.051Z,3.62
2019-05-16T16:52:20.185Z,6.12
2019-05-16T16:54:43.765Z,6.10
2019-05-16T16:57:07.944Z,7.75
2019-05-16T16:59:31.927Z,4.62
2019-05-16T17:01:57.226Z,5.60
2019-05-16T17:04:20.829Z,4.47
2019-05-16T17:06:46.981Z,7.08
2019-05-16T17:09:09.713Z,10.68
2019-05-16T17:11:33.225Z,6.90
2019-05-16T17:13:56.816Z,5.28
2019-05-16T17:16:25.674Z,4.45
2019-05-16T17:18:47.518Z,2.90
2019-05-16T17:21:11.164Z,2.72
2019-05-16T17:23:36.911Z,2.55
2019-05-16T17:25:59.919Z,3.33
2019-05-16T17:28:23.645Z,2.30
2019-05-16T17:30:47.320Z,2.70
2019-05-16T17:33:10.867Z,2.30
2019-05-16T17:35:34.401Z,2.90
2019-05-16T17:37:57.957Z,2.62
2019-05-16T17:40:21.679Z,2.33
2019-05-16T17:42:47.635Z,2.08
2019-05-16T17:45:11.093Z,2.05
2019-05-16T17:47:36.882Z,2.10
2019-05-16T17:49:59.843Z,2.30
2019-05-16T17:52:23.356Z,2.30
2019-05-16T17:54:46.886Z,1.80
2019-05-16T17:57:10.388Z,2.08
2019-05-16T17:59:33.925Z,2.37
2019-05-16T18:01:57.440Z,2.35
2019-05-16T18:04:21.016Z,2.50
2019-05-16T18:06:44.545Z,3.40
2019-05-16T18:09:09.747Z,2.40
2019-05-16T18:11:33.250Z,2.10
2019-05-16T18:13:57.147Z,2.37
2019-05-16T18:16:20.680Z,2.50
2019-05-16T18:18:46.729Z,2.37
2019-05-16T18:21:09.551Z,3.52
2019-05-16T18:23:33.098Z,3.47
2019-05-16T18:25:57.599Z,2.60
2019-05-16T18:28:21.309Z,3.80
2019-05-16T18:30:47.073Z,2.50
2019-05-16T18:33:10.073Z,2.65
2019-05-16T18:35:33.592Z,3.30
2019-05-16T18:37:57.156Z,2.70
2019-05-16T18:40:21.088Z,3.15
2019-05-16T18:42:44.623Z,2.33
2019-05-16T18:45:08.574Z,3.05
2019-05-16T18:47:32.073Z,2.60
2019-05-16T18:49:57.340Z,2.45
2019-05-16T18:52:21.022Z,3.20
2019-05-16T18:54:46.671Z,2.58
2019-05-16T18:57:09.834Z,2.30
2019-05-16T18:59:33.367Z,2.90
2019-05-16T19:01:56.890Z,2.50
2019-05-16T19:04:20.437Z,2.58
2019-05-16T19:06:44.013Z,2.60
2019-05-16T19:09:08.389Z,2.75
2019-05-16T19:11:31.893Z,2.47
2019-05-16T19:13:56.368Z,2.92
2019-05-16T19:16:20.688Z,3.67
2019-05-16T19:18:44.237Z,3.12
2019-05-16T19:21:07.905Z,2.55
2019-05-16T19:23:31.465Z,3.17
2019-05-16T19:25:56.883Z,5.15
2019-05-16T19:28:20.400Z,4.10
2019-05-16T19:30:46.388Z,6.55
2019-05-16T19:33:09.228Z,8.83
2019-05-16T19:35:32.772Z,7.60
2019-05-16T19:37:56.996Z,7.17
2019-05-16T19:40:20.998Z,18.20
2019-05-16T19:42:46.660Z,16.90
2019-05-16T19:45:10.836Z,12.78
2019-05-16T19:47:38.483Z,20.70
2019-05-16T19:49:59.670Z,23.80
2019-05-16T19:52:23.160Z,17.70
2019-05-16T19:54:47.215Z,14.95
2019-05-16T19:57:10.870Z,13.28
2019-05-16T19:59:36.583Z,11.18
2019-05-16T20:02:00.205Z,8.75
2019-05-16T20:04:24.064Z,13.15
2019-05-16T20:06:47.907Z,12.43
2019-05-16T20:09:11.573Z,10.65
2019-05-16T20:11:36.998Z,8.50
2019-05-16T20:14:00.510Z,9.23
2019-05-16T20:16:24.206Z,15.72
2019-05-16T20:18:47.947Z,8.35
2019-05-16T20:21:11.879Z,7.90
2019-05-16T20:23:37.007Z,13.62
2019-05-16T20:26:00.676Z,9.93
2019-05-16T20:28:26.513Z,12.10
2019-05-16T20:30:50.913Z,6.58
2019-05-16T20:33:14.493Z,10.65
2019-05-16T20:35:38.097Z,8.98
2019-05-16T20:38:02.568Z,10.32
2019-05-16T20:40:26.571Z,6.22
2019-05-16T20:42:50.186Z,5.85
2019-05-16T20:45:16.770Z,4.50
2019-05-16T20:47:39.530Z,4.67
2019-05-16T20:50:03.626Z,4.45
2019-05-16T20:52:27.203Z,4.78
2019-05-16T20:54:51.108Z,4.67
2019-05-16T20:57:17.107Z,4.62
2019-05-16T20:59:39.948Z,4.50
2019-05-16T21:02:03.521Z,4.55
2019-05-16T21:04:27.051Z,4.67
2019-05-16T21:07:00.443Z,5.08
2019-05-16T21:09:16.934Z,4.62
2019-05-16T21:11:40.489Z,4.97
2019-05-16T21:14:04.104Z,4.62
2019-05-16T21:16:27.620Z,4.95
2019-05-16T21:18:51.162Z,5.37
2019-05-16T21:21:16.592Z,5.45
2019-05-16T21:23:39.954Z,5.72
2019-05-16T21:26:03.469Z,5.65
2019-05-16T21:28:27.122Z,5.58
2019-05-16T21:30:50.654Z,4.97
2019-05-16T21:33:16.500Z,5.47
2019-05-16T21:35:39.445Z,5.55
2019-05-16T21:38:02.955Z,5.72
2019-05-16T21:40:26.701Z,5.50
2019-05-16T21:42:50.284Z,6.15
2019-05-16T21:45:14.156Z,6.50
2019-05-16T21:47:37.666Z,6.33
2019-05-16T21:50:01.270Z,6.53
2019-05-16T21:52:28.546Z,6.35
2019-05-16T21:54:50.137Z,6.10
2019-05-16T21:57:17.481Z,5.97
2019-05-16T21:59:38.962Z,6.37
2019-05-16T22:02:02.939Z,7.25
2019-05-16T22:04:26.590Z,7.47
2019-05-16T22:06:50.130Z,6.47
2019-05-16T22:09:13.712Z,8.00
2019-05-16T22:11:37.328Z,7.83
2019-05-16T22:14:00.842Z,7.35
2019-05-16T22:16:24.457Z,6.97
2019-05-16T22:18:48.063Z,7.80
2019-05-16T22:21:11.619Z,8.00
2019-05-16T22:23:37.225Z,7.80
2019-05-16T22:26:00.462Z,8.25
2019-05-16T22:28:23.993Z,7.22
2019-05-16T22:31:08.244Z,6.92
2019-05-16T22:33:32.075Z,7.72
2019-05-16T22:35:57.699Z,8.20
2019-05-16T22:38:20.947Z,7.87
2019-05-16T22:40:44.492Z,7.65
2019-05-16T22:43:10.312Z,8.15
2019-05-16T22:45:33.517Z,8.58
2019-05-16T22:47:57.031Z,8.53
2019-05-16T22:50:20.909Z,8.53
2019-05-16T22:52:44.495Z,8.90
2019-05-16T22:55:08.819Z,8.53
2019-05-16T22:57:32.377Z,8.90
2019-05-16T22:59:56.955Z,9.03
2019-05-16T23:02:20.808Z,7.97
2019-05-16T23:04:44.381Z,8.98
2019-05-16T23:07:08.649Z,8.13
2019-05-16T23:09:32.175Z,9.20
2019-05-16T23:11:56.312Z,9.05
2019-05-16T23:14:19.975Z,8.83
2019-05-16T23:16:43.565Z,9.33
2019-05-16T23:19:07.103Z,9.15
2019-05-16T23:21:31.900Z,8.15
2019-05-16T23:23:57.111Z,7.87
2019-05-16T23:26:20.678Z,8.60
2019-05-16T23:28:44.262Z,8.15
2019-05-16T23:31:07.816Z,9.40
2019-05-16T23:33:31.366Z,9.05
2019-05-16T23:35:57.366Z,8.90
2019-05-16T23:38:20.296Z,7.45
2019-05-16T23:40:46.671Z,8.20
2019-05-16T23:43:09.429Z,8.18
2019-05-16T23:45:33.151Z,8.38
2019-05-16T23:47:56.703Z,9.33
2019-05-16T23:50:20.226Z,9.48
2019-05-16T23:52:43.761Z,8.15
2019-05-16T23:55:08.694Z,8.23
2019-05-16T23:57:32.362Z,8.20
2019-05-16T23:59:56.798Z,9.28
